sensor_id;sensor_type;location;lat;lon;timestamp;temperature;humidity
64951;DHT22;51482;47.014;7.652;2023-04-24T00:00:54;11.10;99.90
64951;DHT22;51482;47.014;7.652;2023-04-24T00:03:22;9.90;99.90
64951;DHT22;51482;47.014;7.652;2023-04-24T00:05:48;10.50;99.90
64951;DHT22;51482;47.014;7.652;2023-04-24T00:08:13;9.90;99.90
64951;DHT22;51482;47.014;7.652;2023-04-24T00:10:39;9.50;99.90
64951;DHT22;51482;47.014;7.652;2023-04-24T00:13:04;9.80;99.90
64951;DHT22;51482;47.014;7.652;2023-04-24T00:15:30;10.40;99.90
64951;DHT22;51482;47.014;7.652;2023-04-24T00:17:56;9.70;99.90
64951;DHT22;51482;47.014;7.652;2023-04-24T00:20:21;10.40;99.90
64951;DHT22;51482;47.014;7.652;2023-04-24T00:22:47;10.40;99.90
64951;DHT22;51482;47.014;7.652;2023-04-24T00:25:14;10.40;99.90
64951;DHT22;51482;47.014;7.652;2023-04-24T00:27:40;10.40;99.90
64951;DHT22;51482;47.014;7.652;2023-04-24T00:30:06;10.40;99.90
64951;DHT22;51482;47.014;7.652;2023-04-24T00:32:31;9.70;99.90
64951;DHT22;51482;47.014;7.652;2023-04-24T00:34:57;9.80;99.90
64951;DHT22;51482;47.014;7.652;2023-04-24T00:37:22;9.70;99.90
64951;DHT22;51482;47.014;7.652;2023-04-24T00:39:48;9.80;99.90
64951;DHT22;51482;47.014;7.652;2023-04-24T00:42:14;10.30;99.90
64951;DHT22;51482;47.014;7.652;2023-04-24T00:44:40;9.90;99.90
64951;DHT22;51482;47.014;7.652;2023-04-24T00:47:06;10.50;99.90
64951;DHT22;51482;47.014;7.652;2023-04-24T00:49:32;9.90;99.90
64951;DHT22;51482;47.014;7.652;2023-04-24T00:51:58;10.50;99.90
64951;DHT22;51482;47.014;7.652;2023-04-24T00:54:24;10.20;99.90
64951;DHT22;51482;47.014;7.652;2023-04-24T00:56:50;10.40;99.90
64951;DHT22;51482;47.014;7.652;2023-04-24T00:59:17;9.30;99.90
64951;DHT22;51482;47.014;7.652;2023-04-24T01:01:44;9.60;99.90
64951;DHT22;51482;47.014;7.652;2023-04-24T01:04:11;9.80;99.90
64951;DHT22;51482;47.014;7.652;2023-04-24T01:06:39;9.40;99.90
64951;DHT22;51482;47.014;7.652;2023-04-24T01:09:05;10.40;99.90
64951;DHT22;51482;47.014;7.652;2023-04-24T01:11:31;9.90;99.90
64951;DHT22;51482;47.014;7.652;2023-04-24T01:13:57;9.20;99.90
64951;DHT22;51482;47.014;7.652;2023-04-24T01:16:24;9.90;99.90
64951;DHT22;51482;47.014;7.652;2023-04-24T01:18:50;10.30;99.90
64951;DHT22;51482;47.014;7.652;2023-04-24T01:21:16;9.70;99.90
64951;DHT22;51482;47.014;7.652;2023-04-24T01:23:44;10.30;99.90
64951;DHT22;51482;47.014;7.652;2023-04-24T01:26:10;10.30;99.90
64951;DHT22;51482;47.014;7.652;2023-04-24T01:28:36;9.30;99.90
64951;DHT22;51482;47.014;7.652;2023-04-24T01:31:02;9.80;99.90
64951;DHT22;51482;47.014;7.652;2023-04-24T01:33:28;9.70;99.90
64951;DHT22;51482;47.014;7.652;2023-04-24T01:35:54;10.10;99.90
64951;DHT22;51482;47.014;7.652;2023-04-24T01:38:20;10.30;99.90
64951;DHT22;51482;47.014;7.652;2023-04-24T01:40:46;10.20;99.90
64951;DHT22;51482;47.014;7.652;2023-04-24T01:43:12;10.20;99.90
64951;DHT22;51482;47.014;7.652;2023-04-24T01:45:38;10.00;99.90
64951;DHT22;51482;47.014;7.652;2023-04-24T01:48:04;9.70;99.90
64951;DHT22;51482;47.014;7.652;2023-04-24T01:50:29;10.10;99.90
64951;DHT22;51482;47.014;7.652;2023-04-24T01:52:55;9.60;99.90
64951;DHT22;51482;47.014;7.652;2023-04-24T01:55:21;9.50;99.90
64951;DHT22;51482;47.014;7.652;2023-04-24T01:57:47;10.20;99.90
64951;DHT22;51482;47.014;7.652;2023-04-24T02:00:13;9.20;99.90
64951;DHT22;51482;47.014;7.652;2023-04-24T02:02:40;9.60;99.90
64951;DHT22;51482;47.014;7.652;2023-04-24T02:05:07;10.00;99.90
64951;DHT22;51482;47.014;7.652;2023-04-24T02:07:33;9.50;99.90
64951;DHT22;51482;47.014;7.652;2023-04-24T02:09:59;10.00;99.90
64951;DHT22;51482;47.014;7.652;2023-04-24T02:12:24;10.10;99.90
64951;DHT22;51482;47.014;7.652;2023-04-24T02:14:50;9.90;99.90
64951;DHT22;51482;47.014;7.652;2023-04-24T02:17:16;9.30;99.90
64951;DHT22;51482;47.014;7.652;2023-04-24T02:19:42;9.30;99.90
64951;DHT22;51482;47.014;7.652;2023-04-24T02:22:07;9.40;99.90
64951;DHT22;51482;47.014;7.652;2023-04-24T02:24:33;9.90;99.90
64951;DHT22;51482;47.014;7.652;2023-04-24T02:26:58;9.70;99.90
64951;DHT22;51482;47.014;7.652;2023-04-24T02:29:24;9.00;99.90
64951;DHT22;51482;47.014;7.652;2023-04-24T02:31:50;9.90;99.90
64951;DHT22;51482;47.014;7.652;2023-04-24T02:34:15;9.80;99.90
64951;DHT22;51482;47.014;7.652;2023-04-24T02:36:41;9.40;99.90
64951;DHT22;51482;47.014;7.652;2023-04-24T02:39:07;9.70;99.90
64951;DHT22;51482;47.014;7.652;2023-04-24T02:41:33;9.50;99.90
64951;DHT22;51482;47.014;7.652;2023-04-24T02:43:58;9.60;99.90
64951;DHT22;51482;47.014;7.652;2023-04-24T02:46:24;9.60;99.90
64951;DHT22;51482;47.014;7.652;2023-04-24T02:48:50;8.90;99.90
64951;DHT22;51482;47.014;7.652;2023-04-24T02:51:15;9.20;99.90
64951;DHT22;51482;47.014;7.652;2023-04-24T02:53:41;9.70;99.90
64951;DHT22;51482;47.014;7.652;2023-04-24T02:56:07;9.70;99.90
64951;DHT22;51482;47.014;7.652;2023-04-24T02:58:32;9.60;99.90
64951;DHT22;51482;47.014;7.652;2023-04-24T03:00:58;9.00;99.90
64951;DHT22;51482;47.014;7.652;2023-04-24T03:03:23;9.60;99.90
64951;DHT22;51482;47.014;7.652;2023-04-24T03:05:49;8.80;99.90
64951;DHT22;51482;47.014;7.652;2023-04-24T03:08:15;8.50;99.90
64951;DHT22;51482;47.014;7.652;2023-04-24T03:10:41;9.50;99.90
64951;DHT22;51482;47.014;7.652;2023-04-24T03:13:06;9.60;99.90
64951;DHT22;51482;47.014;7.652;2023-04-24T03:15:32;8.40;99.90
64951;DHT22;51482;47.014;7.652;2023-04-24T03:17:57;8.20;99.90
64951;DHT22;51482;47.014;7.652;2023-04-24T03:20:23;9.70;99.90
64951;DHT22;51482;47.014;7.652;2023-04-24T03:22:49;9.40;99.90
64951;DHT22;51482;47.014;7.652;2023-04-24T03:25:14;9.30;99.90
64951;DHT22;51482;47.014;7.652;2023-04-24T03:27:40;8.80;99.90
64951;DHT22;51482;47.014;7.652;2023-04-24T03:30:09;8.80;99.90
64951;DHT22;51482;47.014;7.652;2023-04-24T03:32:34;9.10;99.90
64951;DHT22;51482;47.014;7.652;2023-04-24T03:35:00;9.40;99.90
64951;DHT22;51482;47.014;7.652;2023-04-24T03:37:26;9.30;99.90
64951;DHT22;51482;47.014;7.652;2023-04-24T03:39:52;9.30;99.90
64951;DHT22;51482;47.014;7.652;2023-04-24T03:42:18;9.20;99.90
64951;DHT22;51482;47.014;7.652;2023-04-24T03:44:43;8.90;99.90
64951;DHT22;51482;47.014;7.652;2023-04-24T03:47:09;9.30;99.90
64951;DHT22;51482;47.014;7.652;2023-04-24T03:49:34;9.50;99.90
64951;DHT22;51482;47.014;7.652;2023-04-24T03:52:00;9.10;99.90
64951;DHT22;51482;47.014;7.652;2023-04-24T03:54:25;8.90;99.90
64951;DHT22;51482;47.014;7.652;2023-04-24T03:56:51;9.50;99.90
64951;DHT22;51482;47.014;7.652;2023-04-24T03:59:17;9.50;99.90
64951;DHT22;51482;47.014;7.652;2023-04-24T04:01:42;9.10;99.90
64951;DHT22;51482;47.014;7.652;2023-04-24T04:04:08;9.60;99.90
64951;DHT22;51482;47.014;7.652;2023-04-24T04:06:33;9.10;99.90
64951;DHT22;51482;47.014;7.652;2023-04-24T04:08:59;9.80;99.90
64951;DHT22;51482;47.014;7.652;2023-04-24T04:11:26;9.80;99.90
64951;DHT22;51482;47.014;7.652;2023-04-24T04:13:52;9.50;99.90
64951;DHT22;51482;47.014;7.652;2023-04-24T04:16:17;9.80;99.90
64951;DHT22;51482;47.014;7.652;2023-04-24T04:18:43;9.20;99.90
64951;DHT22;51482;47.014;7.652;2023-04-24T04:21:09;9.10;99.90
64951;DHT22;51482;47.014;7.652;2023-04-24T04:23:35;9.60;99.90
64951;DHT22;51482;47.014;7.652;2023-04-24T04:26:01;9.70;99.90
64951;DHT22;51482;47.014;7.652;2023-04-24T04:28:27;9.10;99.90
64951;DHT22;51482;47.014;7.652;2023-04-24T04:30:53;8.90;99.90
64951;DHT22;51482;47.014;7.652;2023-04-24T04:33:23;9.20;99.90
64951;DHT22;51482;47.014;7.652;2023-04-24T04:35:48;8.70;99.90
64951;DHT22;51482;47.014;7.652;2023-04-24T04:38:15;9.00;99.90
64951;DHT22;51482;47.014;7.652;2023-04-24T04:40:42;8.90;99.90
64951;DHT22;51482;47.014;7.652;2023-04-24T04:43:08;8.80;99.90
64951;DHT22;51482;47.014;7.652;2023-04-24T04:45:33;9.50;99.90
64951;DHT22;51482;47.014;7.652;2023-04-24T04:48:00;9.30;99.90
64951;DHT22;51482;47.014;7.652;2023-04-24T04:50:26;9.70;99.90
64951;DHT22;51482;47.014;7.652;2023-04-24T04:52:52;9.10;99.90
64951;DHT22;51482;47.014;7.652;2023-04-24T04:55:18;9.70;99.90
64951;DHT22;51482;47.014;7.652;2023-04-24T04:57:45;9.00;99.90
64951;DHT22;51482;47.014;7.652;2023-04-24T05:00:11;9.40;99.90
64951;DHT22;51482;47.014;7.652;2023-04-24T05:02:38;9.20;99.90
64951;DHT22;51482;47.014;7.652;2023-04-24T05:05:04;9.60;99.90
64951;DHT22;51482;47.014;7.652;2023-04-24T05:07:31;9.10;99.90
64951;DHT22;51482;47.014;7.652;2023-04-24T05:09:56;9.50;99.90
64951;DHT22;51482;47.014;7.652;2023-04-24T05:12:22;9.90;99.90
64951;DHT22;51482;47.014;7.652;2023-04-24T05:14:47;9.30;99.90
64951;DHT22;51482;47.014;7.652;2023-04-24T05:17:13;9.30;99.90
64951;DHT22;51482;47.014;7.652;2023-04-24T05:19:38;9.80;99.90
64951;DHT22;51482;47.014;7.652;2023-04-24T05:22:04;9.80;99.90
64951;DHT22;51482;47.014;7.652;2023-04-24T05:24:35;9.90;99.90
64951;DHT22;51482;47.014;7.652;2023-04-24T05:27:01;9.40;99.90
64951;DHT22;51482;47.014;7.652;2023-04-24T05:29:28;9.90;99.90
64951;DHT22;51482;47.014;7.652;2023-04-24T05:31:56;9.90;99.90
64951;DHT22;51482;47.014;7.652;2023-04-24T05:34:21;9.40;99.90
64951;DHT22;51482;47.014;7.652;2023-04-24T05:36:47;10.10;99.90
64951;DHT22;51482;47.014;7.652;2023-04-24T05:39:13;10.00;99.90
64951;DHT22;51482;47.014;7.652;2023-04-24T05:41:39;9.20;99.90
64951;DHT22;51482;47.014;7.652;2023-04-24T05:44:04;10.20;99.90
64951;DHT22;51482;47.014;7.652;2023-04-24T05:46:30;10.20;99.90
64951;DHT22;51482;47.014;7.652;2023-04-24T05:48:56;9.60;99.90
64951;DHT22;51482;47.014;7.652;2023-04-24T05:51:21;10.20;99.90
64951;DHT22;51482;47.014;7.652;2023-04-24T05:53:47;9.80;99.90
64951;DHT22;51482;47.014;7.652;2023-04-24T05:56:12;10.00;99.90
64951;DHT22;51482;47.014;7.652;2023-04-24T05:58:38;9.60;99.90
64951;DHT22;51482;47.014;7.652;2023-04-24T06:01:03;9.20;99.90
64951;DHT22;51482;47.014;7.652;2023-04-24T06:03:29;10.40;99.90
64951;DHT22;51482;47.014;7.652;2023-04-24T06:05:54;9.40;99.90
64951;DHT22;51482;47.014;7.652;2023-04-24T06:08:20;10.20;99.90
64951;DHT22;51482;47.014;7.652;2023-04-24T06:10:45;10.20;99.90
64951;DHT22;51482;47.014;7.652;2023-04-24T06:13:11;10.60;99.90
64951;DHT22;51482;47.014;7.652;2023-04-24T06:15:37;10.40;99.90
64951;DHT22;51482;47.014;7.652;2023-04-24T06:18:03;10.00;99.90
64951;DHT22;51482;47.014;7.652;2023-04-24T06:20:29;10.00;99.90
64951;DHT22;51482;47.014;7.652;2023-04-24T06:22:54;10.40;99.90
64951;DHT22;51482;47.014;7.652;2023-04-24T06:25:20;10.60;99.90
64951;DHT22;51482;47.014;7.652;2023-04-24T06:27:46;10.70;99.90
64951;DHT22;51482;47.014;7.652;2023-04-24T06:30:12;10.60;99.90
64951;DHT22;51482;47.014;7.652;2023-04-24T06:32:37;10.30;99.90
64951;DHT22;51482;47.014;7.652;2023-04-24T06:35:04;9.80;99.90
64951;DHT22;51482;47.014;7.652;2023-04-24T06:37:29;10.40;99.90
64951;DHT22;51482;47.014;7.652;2023-04-24T06:39:55;10.70;99.90
64951;DHT22;51482;47.014;7.652;2023-04-24T06:42:20;11.10;99.90
64951;DHT22;51482;47.014;7.652;2023-04-24T06:44:47;11.30;99.90
64951;DHT22;51482;47.014;7.652;2023-04-24T06:47:12;10.50;99.90
64951;DHT22;51482;47.014;7.652;2023-04-24T06:49:41;11.20;99.90
64951;DHT22;51482;47.014;7.652;2023-04-24T06:52:07;11.40;99.90
64951;DHT22;51482;47.014;7.652;2023-04-24T06:54:33;11.50;99.90
64951;DHT22;51482;47.014;7.652;2023-04-24T06:56:59;11.80;99.90
64951;DHT22;51482;47.014;7.652;2023-04-24T06:59:26;10.60;99.90
64951;DHT22;51482;47.014;7.652;2023-04-24T07:01:52;11.80;99.90
64951;DHT22;51482;47.014;7.652;2023-04-24T07:04:18;11.80;99.90
64951;DHT22;51482;47.014;7.652;2023-04-24T07:06:45;11.70;99.90
64951;DHT22;51482;47.014;7.652;2023-04-24T07:09:11;11.40;99.90
64951;DHT22;51482;47.014;7.652;2023-04-24T07:11:36;11.80;99.90
64951;DHT22;51482;47.014;7.652;2023-04-24T07:14:04;11.90;99.90
64951;DHT22;51482;47.014;7.652;2023-04-24T07:16:29;11.00;99.90
64951;DHT22;51482;47.014;7.652;2023-04-24T07:18:55;11.50;99.90
64951;DHT22;51482;47.014;7.652;2023-04-24T07:21:21;11.70;99.90
64951;DHT22;51482;47.014;7.652;2023-04-24T07:23:46;11.50;99.90
64951;DHT22;51482;47.014;7.652;2023-04-24T07:26:12;12.00;99.90
64951;DHT22;51482;47.014;7.652;2023-04-24T07:28:39;12.00;99.90
64951;DHT22;51482;47.014;7.652;2023-04-24T07:31:05;13.40;99.90
64951;DHT22;51482;47.014;7.652;2023-04-24T07:33:31;12.70;99.90
64951;DHT22;51482;47.014;7.652;2023-04-24T07:35:56;12.10;99.90
64951;DHT22;51482;47.014;7.652;2023-04-24T07:38:22;12.00;99.90
64951;DHT22;51482;47.014;7.652;2023-04-24T07:40:48;12.30;99.90
64951;DHT22;51482;47.014;7.652;2023-04-24T07:43:14;12.00;99.90
64951;DHT22;51482;47.014;7.652;2023-04-24T07:45:40;11.70;99.90
64951;DHT22;51482;47.014;7.652;2023-04-24T07:48:06;11.20;99.90
64951;DHT22;51482;47.014;7.652;2023-04-24T07:50:31;11.00;99.90
64951;DHT22;51482;47.014;7.652;2023-04-24T07:52:57;12.00;99.90
64951;DHT22;51482;47.014;7.652;2023-04-24T07:55:23;11.70;99.90
64951;DHT22;51482;47.014;7.652;2023-04-24T07:57:48;11.90;99.90
64951;DHT22;51482;47.014;7.652;2023-04-24T08:00:14;11.60;99.90
64951;DHT22;51482;47.014;7.652;2023-04-24T08:02:40;11.90;99.90
64951;DHT22;51482;47.014;7.652;2023-04-24T08:05:06;12.00;99.90
64951;DHT22;51482;47.014;7.652;2023-04-24T08:07:35;12.00;99.90
64951;DHT22;51482;47.014;7.652;2023-04-24T08:10:01;12.00;99.90
64951;DHT22;51482;47.014;7.652;2023-04-24T08:12:28;12.30;99.90
64951;DHT22;51482;47.014;7.652;2023-04-24T08:14:54;11.30;99.90
64951;DHT22;51482;47.014;7.652;2023-04-24T08:17:20;11.80;99.90
64951;DHT22;51482;47.014;7.652;2023-04-24T08:19:46;11.80;99.90
64951;DHT22;51482;47.014;7.652;2023-04-24T08:22:16;12.50;99.90
64951;DHT22;51482;47.014;7.652;2023-04-24T08:24:42;13.10;99.90
64951;DHT22;51482;47.014;7.652;2023-04-24T08:27:09;12.40;99.90
64951;DHT22;51482;47.014;7.652;2023-04-24T08:29:35;12.50;99.90
64951;DHT22;51482;47.014;7.652;2023-04-24T08:32:01;12.00;99.90
64951;DHT22;51482;47.014;7.652;2023-04-24T08:34:26;12.10;99.90
64951;DHT22;51482;47.014;7.652;2023-04-24T08:36:52;12.00;99.90
64951;DHT22;51482;47.014;7.652;2023-04-24T08:39:18;12.70;99.90
64951;DHT22;51482;47.014;7.652;2023-04-24T08:41:44;12.00;99.90
64951;DHT22;51482;47.014;7.652;2023-04-24T08:44:11;12.90;99.90
64951;DHT22;51482;47.014;7.652;2023-04-24T08:46:38;13.10;99.90
64951;DHT22;51482;47.014;7.652;2023-04-24T08:49:05;13.20;99.90
64951;DHT22;51482;47.014;7.652;2023-04-24T08:51:31;13.20;99.90
64951;DHT22;51482;47.014;7.652;2023-04-24T08:53:57;13.90;99.90
64951;DHT22;51482;47.014;7.652;2023-04-24T08:56:23;13.60;99.90
64951;DHT22;51482;47.014;7.652;2023-04-24T08:58:53;14.10;99.90
64951;DHT22;51482;47.014;7.652;2023-04-24T09:01:20;14.60;99.90
64951;DHT22;51482;47.014;7.652;2023-04-24T09:03:49;14.80;99.90
64951;DHT22;51482;47.014;7.652;2023-04-24T09:06:16;14.70;99.90
64951;DHT22;51482;47.014;7.652;2023-04-24T09:08:43;15.00;99.90
64951;DHT22;51482;47.014;7.652;2023-04-24T09:11:11;14.60;99.90
64951;DHT22;51482;47.014;7.652;2023-04-24T09:13:36;15.50;99.90
64951;DHT22;51482;47.014;7.652;2023-04-24T09:16:02;15.40;99.90
64951;DHT22;51482;47.014;7.652;2023-04-24T09:18:28;15.90;99.90
64951;DHT22;51482;47.014;7.652;2023-04-24T09:20:58;15.90;99.90
64951;DHT22;51482;47.014;7.652;2023-04-24T09:23:29;16.10;99.90
64951;DHT22;51482;47.014;7.652;2023-04-24T09:25:56;15.20;99.90
64951;DHT22;51482;47.014;7.652;2023-04-24T09:28:29;15.10;99.80
64951;DHT22;51482;47.014;7.652;2023-04-24T09:31:13;14.40;99.90
64951;DHT22;51482;47.014;7.652;2023-04-24T09:33:40;14.20;99.90
64951;DHT22;51482;47.014;7.652;2023-04-24T09:36:06;14.70;99.90
64951;DHT22;51482;47.014;7.652;2023-04-24T09:38:33;14.60;99.60
64951;DHT22;51482;47.014;7.652;2023-04-24T09:41:01;13.80;97.80
64951;DHT22;51482;47.014;7.652;2023-04-24T09:43:28;13.30;97.60
64951;DHT22;51482;47.014;7.652;2023-04-24T09:45:56;13.60;98.60
64951;DHT22;51482;47.014;7.652;2023-04-24T09:48:34;13.30;99.30
64951;DHT22;51482;47.014;7.652;2023-04-24T09:51:02;13.20;98.90
64951;DHT22;51482;47.014;7.652;2023-04-24T09:53:29;13.50;99.90
64951;DHT22;51482;47.014;7.652;2023-04-24T09:55:55;13.30;99.90
64951;DHT22;51482;47.014;7.652;2023-04-24T09:58:26;13.40;99.90
64951;DHT22;51482;47.014;7.652;2023-04-24T10:00:56;13.60;99.70
64951;DHT22;51482;47.014;7.652;2023-04-24T10:03:24;14.00;98.60
64951;DHT22;51482;47.014;7.652;2023-04-24T10:05:52;13.70;99.90
64951;DHT22;51482;47.014;7.652;2023-04-24T10:08:18;13.80;99.90
64951;DHT22;51482;47.014;7.652;2023-04-24T10:10:45;14.80;99.90
64951;DHT22;51482;47.014;7.652;2023-04-24T10:13:13;15.70;99.30
64951;DHT22;51482;47.014;7.652;2023-04-24T10:15:41;17.00;96.60
64951;DHT22;51482;47.014;7.652;2023-04-24T10:18:09;16.80;94.00
64951;DHT22;51482;47.014;7.652;2023-04-24T10:20:37;16.60;95.10
64951;DHT22;51482;47.014;7.652;2023-04-24T10:23:05;16.30;92.00
64951;DHT22;51482;47.014;7.652;2023-04-24T10:25:32;15.90;92.10
64951;DHT22;51482;47.014;7.652;2023-04-24T10:27:59;15.00;89.50
64951;DHT22;51482;47.014;7.652;2023-04-24T10:30:27;15.00;92.60
64951;DHT22;51482;47.014;7.652;2023-04-24T10:32:52;16.00;93.50
64951;DHT22;51482;47.014;7.652;2023-04-24T10:35:19;15.60;91.10
64951;DHT22;51482;47.014;7.652;2023-04-24T10:37:58;16.10;90.70
64951;DHT22;51482;47.014;7.652;2023-04-24T10:40:32;16.00;90.60
64951;DHT22;51482;47.014;7.652;2023-04-24T10:43:05;16.90;85.30
64951;DHT22;51482;47.014;7.652;2023-04-24T10:45:36;16.40;82.90
64951;DHT22;51482;47.014;7.652;2023-04-24T10:48:03;15.30;78.70
64951;DHT22;51482;47.014;7.652;2023-04-24T10:50:45;15.30;76.80
64951;DHT22;51482;47.014;7.652;2023-04-24T10:53:19;15.80;82.20
64951;DHT22;51482;47.014;7.652;2023-04-24T10:55:47;16.60;84.40
64951;DHT22;51482;47.014;7.652;2023-04-24T10:58:13;17.70;80.00
64951;DHT22;51482;47.014;7.652;2023-04-24T11:00:42;17.50;77.00
64951;DHT22;51482;47.014;7.652;2023-04-24T11:06:03;18.30;69.50
64951;DHT22;51482;47.014;7.652;2023-04-24T11:08:31;18.00;65.70
64951;DHT22;51482;47.014;7.652;2023-04-24T11:11:19;17.70;67.00
64951;DHT22;51482;47.014;7.652;2023-04-24T11:16:33;16.60;69.20
64951;DHT22;51482;47.014;7.652;2023-04-24T11:19:07;17.10;69.90
64951;DHT22;51482;47.014;7.652;2023-04-24T11:27:16;17.40;73.60
64951;DHT22;51482;47.014;7.652;2023-04-24T11:32:29;16.40;69.10
64951;DHT22;51482;47.014;7.652;2023-04-24T11:37:35;15.60;70.90
64951;DHT22;51482;47.014;7.652;2023-04-24T11:40:02;15.50;72.80
64951;DHT22;51482;47.014;7.652;2023-04-24T11:45:02;15.50;74.10
64951;DHT22;51482;47.014;7.652;2023-04-24T11:47:32;15.50;75.30
64951;DHT22;51482;47.014;7.652;2023-04-24T11:49:59;15.50;74.50
64951;DHT22;51482;47.014;7.652;2023-04-24T11:52:26;15.50;78.30
64951;DHT22;51482;47.014;7.652;2023-04-24T11:54:51;15.50;79.00
64951;DHT22;51482;47.014;7.652;2023-04-24T11:57:19;15.20;78.30
64951;DHT22;51482;47.014;7.652;2023-04-24T11:59:45;15.20;78.70
64951;DHT22;51482;47.014;7.652;2023-04-24T12:02:24;14.90;79.10
64951;DHT22;51482;47.014;7.652;2023-04-24T12:04:51;14.90;84.00
64951;DHT22;51482;47.014;7.652;2023-04-24T12:07:17;14.40;79.90
64951;DHT22;51482;47.014;7.652;2023-04-24T12:09:48;14.30;84.20
64951;DHT22;51482;47.014;7.652;2023-04-24T12:12:15;14.70;83.90
64951;DHT22;51482;47.014;7.652;2023-04-24T12:15:00;14.50;87.00
64951;DHT22;51482;47.014;7.652;2023-04-24T12:17:30;13.90;87.40
64951;DHT22;51482;47.014;7.652;2023-04-24T12:20:05;14.00;89.80
64951;DHT22;51482;47.014;7.652;2023-04-24T12:22:53;14.10;88.30
64951;DHT22;51482;47.014;7.652;2023-04-24T12:25:29;14.40;88.60
64951;DHT22;51482;47.014;7.652;2023-04-24T12:28:09;14.50;89.10
64951;DHT22;51482;47.014;7.652;2023-04-24T12:30:51;14.20;88.70
64951;DHT22;51482;47.014;7.652;2023-04-24T12:33:20;14.80;90.10
64951;DHT22;51482;47.014;7.652;2023-04-24T12:35:48;14.90;89.60
64951;DHT22;51482;47.014;7.652;2023-04-24T12:38:15;14.90;89.80
64951;DHT22;51482;47.014;7.652;2023-04-24T12:40:42;14.50;90.50
64951;DHT22;51482;47.014;7.652;2023-04-24T12:43:18;14.60;91.30
64951;DHT22;51482;47.014;7.652;2023-04-24T12:45:44;14.60;90.60
64951;DHT22;51482;47.014;7.652;2023-04-24T12:48:10;15.40;90.50
64951;DHT22;51482;47.014;7.652;2023-04-24T12:50:36;16.90;86.30
64951;DHT22;51482;47.014;7.652;2023-04-24T12:53:03;15.90;82.90
64951;DHT22;51482;47.014;7.652;2023-04-24T12:55:28;16.40;84.60
64951;DHT22;51482;47.014;7.652;2023-04-24T12:57:54;16.00;82.00
64951;DHT22;51482;47.014;7.652;2023-04-24T13:00:20;16.90;83.40
64951;DHT22;51482;47.014;7.652;2023-04-24T13:02:46;16.70;82.50
64951;DHT22;51482;47.014;7.652;2023-04-24T13:05:12;16.20;79.70
64951;DHT22;51482;47.014;7.652;2023-04-24T13:07:39;17.10;79.80
64951;DHT22;51482;47.014;7.652;2023-04-24T13:10:06;17.70;79.50
64951;DHT22;51482;47.014;7.652;2023-04-24T13:12:32;17.50;77.60
64951;DHT22;51482;47.014;7.652;2023-04-24T13:14:57;17.10;75.80
64951;DHT22;51482;47.014;7.652;2023-04-24T13:17:24;16.50;77.90
64951;DHT22;51482;47.014;7.652;2023-04-24T13:19:50;16.10;81.30
64951;DHT22;51482;47.014;7.652;2023-04-24T13:22:16;16.00;81.00
64951;DHT22;51482;47.014;7.652;2023-04-24T13:24:44;15.60;87.00
64951;DHT22;51482;47.014;7.652;2023-04-24T13:27:10;17.40;87.50
64951;DHT22;51482;47.014;7.652;2023-04-24T13:29:36;17.70;79.10
64951;DHT22;51482;47.014;7.652;2023-04-24T13:32:01;17.50;77.80
64951;DHT22;51482;47.014;7.652;2023-04-24T13:34:27;17.40;82.30
64951;DHT22;51482;47.014;7.652;2023-04-24T13:36:55;17.70;80.80
64951;DHT22;51482;47.014;7.652;2023-04-24T13:39:21;18.30;81.90
64951;DHT22;51482;47.014;7.652;2023-04-24T13:41:47;17.80;81.90
64951;DHT22;51482;47.014;7.652;2023-04-24T13:44:14;17.70;76.40
64951;DHT22;51482;47.014;7.652;2023-04-24T13:46:39;17.30;75.40
64951;DHT22;51482;47.014;7.652;2023-04-24T13:49:05;17.30;76.30
64951;DHT22;51482;47.014;7.652;2023-04-24T13:51:30;17.10;75.80
64951;DHT22;51482;47.014;7.652;2023-04-24T13:53:56;17.60;75.30
64951;DHT22;51482;47.014;7.652;2023-04-24T13:56:22;17.40;72.00
64951;DHT22;51482;47.014;7.652;2023-04-24T13:58:48;17.60;74.60
64951;DHT22;51482;47.014;7.652;2023-04-24T14:01:14;17.40;73.40
64951;DHT22;51482;47.014;7.652;2023-04-24T14:03:42;17.50;72.40
64951;DHT22;51482;47.014;7.652;2023-04-24T14:06:08;18.70;75.30
64951;DHT22;51482;47.014;7.652;2023-04-24T14:08:34;18.30;70.50
64951;DHT22;51482;47.014;7.652;2023-04-24T14:11:00;17.30;69.40
64951;DHT22;51482;47.014;7.652;2023-04-24T14:13:26;17.50;73.40
64951;DHT22;51482;47.014;7.652;2023-04-24T14:15:51;17.60;74.10
64951;DHT22;51482;47.014;7.652;2023-04-24T14:18:18;18.50;75.20
64951;DHT22;51482;47.014;7.652;2023-04-24T14:20:44;18.90;70.60
64951;DHT22;51482;47.014;7.652;2023-04-24T14:23:09;18.90;70.50
64951;DHT22;51482;47.014;7.652;2023-04-24T14:25:35;18.70;70.20
64951;DHT22;51482;47.014;7.652;2023-04-24T14:28:00;18.40;67.60
64951;DHT22;51482;47.014;7.652;2023-04-24T14:30:26;17.20;68.90
64951;DHT22;51482;47.014;7.652;2023-04-24T14:32:51;17.00;73.10
64951;DHT22;51482;47.014;7.652;2023-04-24T14:35:17;17.00;72.20
64951;DHT22;51482;47.014;7.652;2023-04-24T14:37:43;17.60;72.10
64951;DHT22;51482;47.014;7.652;2023-04-24T14:40:09;17.10;69.60
64951;DHT22;51482;47.014;7.652;2023-04-24T14:42:35;16.70;69.40
64951;DHT22;51482;47.014;7.652;2023-04-24T14:45:01;17.20;70.20
64951;DHT22;51482;47.014;7.652;2023-04-24T14:47:27;15.80;70.90
64951;DHT22;51482;47.014;7.652;2023-04-24T14:49:52;16.20;74.50
64951;DHT22;51482;47.014;7.652;2023-04-24T14:52:18;16.30;75.40
64951;DHT22;51482;47.014;7.652;2023-04-24T14:54:44;16.50;76.60
64951;DHT22;51482;47.014;7.652;2023-04-24T14:57:09;17.60;77.40
64951;DHT22;51482;47.014;7.652;2023-04-24T14:59:35;17.20;77.00
64951;DHT22;51482;47.014;7.652;2023-04-24T15:02:01;16.20;73.70
64951;DHT22;51482;47.014;7.652;2023-04-24T15:04:27;17.10;76.10
64951;DHT22;51482;47.014;7.652;2023-04-24T15:06:54;17.20;75.90
64951;DHT22;51482;47.014;7.652;2023-04-24T15:09:21;17.50;75.40
64951;DHT22;51482;47.014;7.652;2023-04-24T15:11:47;16.50;71.60
64951;DHT22;51482;47.014;7.652;2023-04-24T15:14:13;17.00;74.60
64951;DHT22;51482;47.014;7.652;2023-04-24T15:16:38;16.40;78.70
64951;DHT22;51482;47.014;7.652;2023-04-24T15:19:04;16.50;78.20
64951;DHT22;51482;47.014;7.652;2023-04-24T15:21:29;16.40;79.90
64951;DHT22;51482;47.014;7.652;2023-04-24T15:23:56;16.80;79.20
64951;DHT22;51482;47.014;7.652;2023-04-24T15:26:23;16.80;79.60
64951;DHT22;51482;47.014;7.652;2023-04-24T15:28:48;17.30;76.10
64951;DHT22;51482;47.014;7.652;2023-04-24T15:31:14;16.60;71.20
64951;DHT22;51482;47.014;7.652;2023-04-24T15:33:40;17.00;76.40
64951;DHT22;51482;47.014;7.652;2023-04-24T15:36:06;16.70;71.60
64951;DHT22;51482;47.014;7.652;2023-04-24T15:38:31;16.80;72.10
64951;DHT22;51482;47.014;7.652;2023-04-24T15:40:57;17.00;72.30
64951;DHT22;51482;47.014;7.652;2023-04-24T15:43:22;17.10;67.50
64951;DHT22;51482;47.014;7.652;2023-04-24T15:45:49;17.20;69.30
64951;DHT22;51482;47.014;7.652;2023-04-24T15:48:15;16.70;71.60
64951;DHT22;51482;47.014;7.652;2023-04-24T15:50:41;17.10;72.30